sensor_id;sensor_type;location;lat;lon;timestamp;temperature;humidity
21778;DHT22;11050;52.222;20.916;2024-03-23T00:55:43;8.70;99.90
21778;DHT22;11050;52.222;20.916;2024-03-23T00:58:09;8.70;99.90
21778;DHT22;11050;52.222;20.916;2024-03-23T01:00:35;8.70;99.90
21778;DHT22;11050;52.222;20.916;2024-03-23T01:03:01;8.70;99.90
21778;DHT22;11050;52.222;20.916;2024-03-23T01:05:27;8.70;99.90
21778;DHT22;11050;52.222;20.916;2024-03-23T01:07:53;8.60;99.90
21778;DHT22;11050;52.222;20.916;2024-03-23T01:10:18;8.60;99.90
21778;DHT22;11050;52.222;20.916;2024-03-23T01:12:44;8.60;99.90
21778;DHT22;11050;52.222;20.916;2024-03-23T01:15:10;8.60;99.90
21778;DHT22;11050;52.222;20.916;2024-03-23T01:17:36;8.60;99.90
21778;DHT22;11050;52.222;20.916;2024-03-23T01:20:01;8.60;99.90
21778;DHT22;11050;52.222;20.916;2024-03-23T01:22:28;8.60;99.90
21778;DHT22;11050;52.222;20.916;2024-03-23T01:24:54;8.60;99.90
21778;DHT22;11050;52.222;20.916;2024-03-23T01:27:19;8.60;99.90
21778;DHT22;11050;52.222;20.916;2024-03-23T01:29:45;8.60;99.90
21778;DHT22;11050;52.222;20.916;2024-03-23T01:32:11;8.60;99.90
21778;DHT22;11050;52.222;20.916;2024-03-23T01:34:36;8.60;99.90
21778;DHT22;11050;52.222;20.916;2024-03-23T01:37:02;8.60;99.90
21778;DHT22;11050;52.222;20.916;2024-03-23T01:39:28;8.50;99.90
21778;DHT22;11050;52.222;20.916;2024-03-23T01:41:54;8.60;99.90
21778;DHT22;11050;52.222;20.916;2024-03-23T01:44:19;8.50;99.90
21778;DHT22;11050;52.222;20.916;2024-03-23T01:46:45;8.50;99.90
21778;DHT22;11050;52.222;20.916;2024-03-23T01:49:11;8.50;99.90
21778;DHT22;11050;52.222;20.916;2024-03-23T01:51:38;8.50;99.90
21778;DHT22;11050;52.222;20.916;2024-03-23T01:54:06;8.50;99.90
21778;DHT22;11050;52.222;20.916;2024-03-23T01:56:36;8.50;99.90
21778;DHT22;11050;52.222;20.916;2024-03-23T01:59:08;8.60;99.90
21778;DHT22;11050;52.222;20.916;2024-03-23T02:01:36;8.50;99.90
21778;DHT22;11050;52.222;20.916;2024-03-23T02:04:02;8.50;99.90
21778;DHT22;11050;52.222;20.916;2024-03-23T02:06:28;8.60;99.90
21778;DHT22;11050;52.222;20.916;2024-03-23T02:08:54;8.60;99.90
21778;DHT22;11050;52.222;20.916;2024-03-23T02:11:21;8.60;99.90
21778;DHT22;11050;52.222;20.916;2024-03-23T02:13:46;8.60;99.90
21778;DHT22;11050;52.222;20.916;2024-03-23T02:16:12;8.60;99.90
21778;DHT22;11050;52.222;20.916;2024-03-23T02:18:41;8.60;99.90
21778;DHT22;11050;52.222;20.916;2024-03-23T02:21:07;8.60;99.90
21778;DHT22;11050;52.222;20.916;2024-03-23T02:23:32;8.60;99.90
21778;DHT22;11050;52.222;20.916;2024-03-23T02:25:58;8.60;99.90
21778;DHT22;11050;52.222;20.916;2024-03-23T02:28:24;8.60;99.90
21778;DHT22;11050;52.222;20.916;2024-03-23T02:30:50;8.60;99.90
21778;DHT22;11050;52.222;20.916;2024-03-23T02:33:16;8.60;99.90
21778;DHT22;11050;52.222;20.916;2024-03-23T02:35:42;8.60;99.90
21778;DHT22;11050;52.222;20.916;2024-03-23T02:38:11;8.60;99.90
21778;DHT22;11050;52.222;20.916;2024-03-23T02:40:37;8.60;99.90
21778;DHT22;11050;52.222;20.916;2024-03-23T02:43:03;8.60;99.90
21778;DHT22;11050;52.222;20.916;2024-03-23T02:45:30;8.60;99.90
21778;DHT22;11050;52.222;20.916;2024-03-23T02:47:56;8.70;99.90
21778;DHT22;11050;52.222;20.916;2024-03-23T02:50:22;8.70;99.90
21778;DHT22;11050;52.222;20.916;2024-03-23T02:52:48;8.60;99.90
21778;DHT22;11050;52.222;20.916;2024-03-23T02:55:14;8.70;99.90
21778;DHT22;11050;52.222;20.916;2024-03-23T02:57:41;8.70;99.90
21778;DHT22;11050;52.222;20.916;2024-03-23T03:00:07;8.70;99.90
21778;DHT22;11050;52.222;20.916;2024-03-23T03:02:35;8.70;99.90
21778;DHT22;11050;52.222;20.916;2024-03-23T03:05:01;8.70;99.90
21778;DHT22;11050;52.222;20.916;2024-03-23T03:07:27;8.70;99.90
21778;DHT22;11050;52.222;20.916;2024-03-23T03:09:53;8.70;99.90
21778;DHT22;11050;52.222;20.916;2024-03-23T03:12:18;8.70;99.90
21778;DHT22;11050;52.222;20.916;2024-03-23T03:14:44;8.70;99.90
21778;DHT22;11050;52.222;20.916;2024-03-23T03:17:10;8.70;99.90
21778;DHT22;11050;52.222;20.916;2024-03-23T03:19:35;8.70;99.90
21778;DHT22;11050;52.222;20.916;2024-03-23T03:22:01;8.70;99.90
21778;DHT22;11050;52.222;20.916;2024-03-23T03:24:27;8.70;99.90
21778;DHT22;11050;52.222;20.916;2024-03-23T03:26:52;8.80;99.90
21778;DHT22;11050;52.222;20.916;2024-03-23T03:29:18;8.70;99.90
21778;DHT22;11050;52.222;20.916;2024-03-23T03:31:44;8.80;99.90
21778;DHT22;11050;52.222;20.916;2024-03-23T03:34:10;8.70;99.90
21778;DHT22;11050;52.222;20.916;2024-03-23T03:36:36;8.80;99.90
21778;DHT22;11050;52.222;20.916;2024-03-23T03:39:01;8.80;99.90
21778;DHT22;11050;52.222;20.916;2024-03-23T03:41:31;8.80;99.90
21778;DHT22;11050;52.222;20.916;2024-03-23T03:43:57;8.80;99.90
21778;DHT22;11050;52.222;20.916;2024-03-23T03:46:27;8.80;99.90
21778;DHT22;11050;52.222;20.916;2024-03-23T03:48:54;8.80;99.90
21778;DHT22;11050;52.222;20.916;2024-03-23T03:51:20;8.80;99.90
21778;DHT22;11050;52.222;20.916;2024-03-23T03:53:46;8.80;99.90
21778;DHT22;11050;52.222;20.916;2024-03-23T03:56:12;8.80;99.90
21778;DHT22;11050;52.222;20.916;2024-03-23T03:58:41;8.80;99.90
21778;DHT22;11050;52.222;20.916;2024-03-23T04:01:07;8.80;99.90
21778;DHT22;11050;52.222;20.916;2024-03-23T04:03:32;8.80;99.90
21778;DHT22;11050;52.222;20.916;2024-03-23T04:05:58;8.80;99.90
21778;DHT22;11050;52.222;20.916;2024-03-23T04:08:24;8.80;99.90
21778;DHT22;11050;52.222;20.916;2024-03-23T04:10:50;8.80;99.90
21778;DHT22;11050;52.222;20.916;2024-03-23T04:13:15;8.80;99.90
21778;DHT22;11050;52.222;20.916;2024-03-23T04:15:41;8.80;99.90
21778;DHT22;11050;52.222;20.916;2024-03-23T04:18:07;8.80;99.90
21778;DHT22;11050;52.222;20.916;2024-03-23T04:20:34;8.80;99.90
21778;DHT22;11050;52.222;20.916;2024-03-23T04:23:00;8.80;99.90
21778;DHT22;11050;52.222;20.916;2024-03-23T04:25:26;8.80;99.90
21778;DHT22;11050;52.222;20.916;2024-03-23T04:27:52;8.80;99.90
21778;DHT22;11050;52.222;20.916;2024-03-23T04:30:18;8.80;99.90
21778;DHT22;11050;52.222;20.916;2024-03-23T04:32:44;8.80;99.90
21778;DHT22;11050;52.222;20.916;2024-03-23T04:35:10;8.80;99.90
21778;DHT22;11050;52.222;20.916;2024-03-23T04:37:37;8.80;99.90
21778;DHT22;11050;52.222;20.916;2024-03-23T04:40:04;8.90;99.90
21778;DHT22;11050;52.222;20.916;2024-03-23T04:42:31;8.80;99.90
21778;DHT22;11050;52.222;20.916;2024-03-23T04:44:57;8.80;99.90
21778;DHT22;11050;52.222;20.916;2024-03-23T04:47:23;8.80;99.90
21778;DHT22;11050;52.222;20.916;2024-03-23T04:49:49;8.80;99.90
21778;DHT22;11050;52.222;20.916;2024-03-23T04:52:16;8.80;99.90
21778;DHT22;11050;52.222;20.916;2024-03-23T04:54:42;8.90;99.90
21778;DHT22;11050;52.222;20.916;2024-03-23T04:57:09;8.90;99.90
21778;DHT22;11050;52.222;20.916;2024-03-23T04:59:35;8.80;99.90
21778;DHT22;11050;52.222;20.916;2024-03-23T05:02:00;8.90;99.90
21778;DHT22;11050;52.222;20.916;2024-03-23T05:04:27;8.90;99.90
21778;DHT22;11050;52.222;20.916;2024-03-23T05:06:53;8.80;99.90
21778;DHT22;11050;52.222;20.916;2024-03-23T05:09:19;8.90;99.90
21778;DHT22;11050;52.222;20.916;2024-03-23T05:11:45;8.90;99.90
21778;DHT22;11050;52.222;20.916;2024-03-23T05:14:14;8.90;99.90
21778;DHT22;11050;52.222;20.916;2024-03-23T05:16:40;8.90;99.90
21778;DHT22;11050;52.222;20.916;2024-03-23T05:19:06;8.90;99.90
21778;DHT22;11050;52.222;20.916;2024-03-23T05:21:32;8.90;99.90
21778;DHT22;11050;52.222;20.916;2024-03-23T05:23:58;8.90;99.90
21778;DHT22;11050;52.222;20.916;2024-03-23T05:26:23;8.90;99.90
21778;DHT22;11050;52.222;20.916;2024-03-23T05:28:49;8.90;99.90
21778;DHT22;11050;52.222;20.916;2024-03-23T05:31:25;8.90;99.90
21778;DHT22;11050;52.222;20.916;2024-03-23T05:33:52;8.90;99.90
21778;DHT22;11050;52.222;20.916;2024-03-23T05:36:18;8.90;99.90
21778;DHT22;11050;52.222;20.916;2024-03-23T05:38:44;8.90;99.90
21778;DHT22;11050;52.222;20.916;2024-03-23T05:41:10;8.90;99.90
21778;DHT22;11050;52.222;20.916;2024-03-23T05:43:36;8.90;99.90
21778;DHT22;11050;52.222;20.916;2024-03-23T05:46:01;8.90;99.90
21778;DHT22;11050;52.222;20.916;2024-03-23T05:48:28;8.90;99.90
21778;DHT22;11050;52.222;20.916;2024-03-23T05:50:56;8.90;99.90
21778;DHT22;11050;52.222;20.916;2024-03-23T05:53:23;8.90;99.90
21778;DHT22;11050;52.222;20.916;2024-03-23T05:55:50;8.90;99.90
21778;DHT22;11050;52.222;20.916;2024-03-23T05:58:19;9.00;99.90
21778;DHT22;11050;52.222;20.916;2024-03-23T06:00:45;9.00;99.90
21778;DHT22;11050;52.222;20.916;2024-03-23T06:03:11;9.00;99.90
21778;DHT22;11050;52.222;20.916;2024-03-23T06:05:37;9.00;99.90
21778;DHT22;11050;52.222;20.916;2024-03-23T06:08:04;9.00;99.90
21778;DHT22;11050;52.222;20.916;2024-03-23T06:10:30;9.00;99.90
21778;DHT22;11050;52.222;20.916;2024-03-23T06:12:57;9.00;99.90
21778;DHT22;11050;52.222;20.916;2024-03-23T06:15:24;9.00;99.90
21778;DHT22;11050;52.222;20.916;2024-03-23T06:17:52;9.00;99.90
21778;DHT22;11050;52.222;20.916;2024-03-23T06:20:18;9.00;99.90
21778;DHT22;11050;52.222;20.916;2024-03-23T06:22:44;9.00;99.90
21778;DHT22;11050;52.222;20.916;2024-03-23T06:25:09;9.10;99.90
21778;DHT22;11050;52.222;20.916;2024-03-23T06:27:38;9.10;99.90
21778;DHT22;11050;52.222;20.916;2024-03-23T06:30:05;9.00;99.90
21778;DHT22;11050;52.222;20.916;2024-03-23T06:32:32;9.10;99.90
21778;DHT22;11050;52.222;20.916;2024-03-23T06:34:58;9.10;99.90
21778;DHT22;11050;52.222;20.916;2024-03-23T06:37:24;9.10;99.90
21778;DHT22;11050;52.222;20.916;2024-03-23T06:39:51;9.10;99.90
21778;DHT22;11050;52.222;20.916;2024-03-23T06:42:17;9.10;99.90
21778;DHT22;11050;52.222;20.916;2024-03-23T06:44:43;9.10;99.90
21778;DHT22;11050;52.222;20.916;2024-03-23T06:47:09;9.20;99.90
21778;DHT22;11050;52.222;20.916;2024-03-23T06:49:35;9.20;99.90
21778;DHT22;11050;52.222;20.916;2024-03-23T06:52:01;9.20;99.90
21778;DHT22;11050;52.222;20.916;2024-03-23T06:54:26;9.20;99.90
21778;DHT22;11050;52.222;20.916;2024-03-23T06:56:52;9.20;99.90
21778;DHT22;11050;52.222;20.916;2024-03-23T06:59:18;9.20;99.90
21778;DHT22;11050;52.222;20.916;2024-03-23T07:01:43;9.20;99.90
21778;DHT22;11050;52.222;20.916;2024-03-23T07:04:09;9.20;99.90
21778;DHT22;11050;52.222;20.916;2024-03-23T07:06:42;9.20;99.90
21778;DHT22;11050;52.222;20.916;2024-03-23T07:09:09;9.20;99.90
21778;DHT22;11050;52.222;20.916;2024-03-23T07:11:35;9.20;99.90
21778;DHT22;11050;52.222;20.916;2024-03-23T07:14:01;9.20;99.90
21778;DHT22;11050;52.222;20.916;2024-03-23T07:16:28;9.20;99.90
21778;DHT22;11050;52.222;20.916;2024-03-23T07:18:54;9.20;99.90
21778;DHT22;11050;52.222;20.916;2024-03-23T07:21:21;9.30;99.90
21778;DHT22;11050;52.222;20.916;2024-03-23T07:23:47;9.20;99.90
21778;DHT22;11050;52.222;20.916;2024-03-23T07:26:13;9.30;99.90
21778;DHT22;11050;52.222;20.916;2024-03-23T07:28:39;9.30;99.90
21778;DHT22;11050;52.222;20.916;2024-03-23T07:31:13;9.30;99.90
21778;DHT22;11050;52.222;20.916;2024-03-23T07:33:43;9.30;99.90
21778;DHT22;11050;52.222;20.916;2024-03-23T07:36:10;9.30;99.90
21778;DHT22;11050;52.222;20.916;2024-03-23T07:38:36;9.30;99.90
21778;DHT22;11050;52.222;20.916;2024-03-23T07:41:09;9.30;99.90
21778;DHT22;11050;52.222;20.916;2024-03-23T07:43:38;9.20;99.90
21778;DHT22;11050;52.222;20.916;2024-03-23T07:46:04;9.20;99.90
21778;DHT22;11050;52.222;20.916;2024-03-23T07:48:30;9.20;99.90
21778;DHT22;11050;52.222;20.916;2024-03-23T07:50:58;9.20;99.90
21778;DHT22;11050;52.222;20.916;2024-03-23T07:53:23;9.20;99.90
21778;DHT22;11050;52.222;20.916;2024-03-23T07:55:54;9.30;99.90
21778;DHT22;11050;52.222;20.916;2024-03-23T07:58:25;9.30;99.90
21778;DHT22;11050;52.222;20.916;2024-03-23T08:00:55;9.40;99.90
21778;DHT22;11050;52.222;20.916;2024-03-23T08:03:22;9.40;99.90
21778;DHT22;11050;52.222;20.916;2024-03-23T08:05:48;9.50;99.90
21778;DHT22;11050;52.222;20.916;2024-03-23T08:08:14;9.60;99.90
21778;DHT22;11050;52.222;20.916;2024-03-23T08:10:52;9.60;99.90
21778;DHT22;11050;52.222;20.916;2024-03-23T08:13:19;9.70;99.90
21778;DHT22;11050;52.222;20.916;2024-03-23T08:15:45;9.70;99.90
21778;DHT22;11050;52.222;20.916;2024-03-23T08:18:12;9.80;99.90
21778;DHT22;11050;52.222;20.916;2024-03-23T08:20:41;9.80;99.90
21778;DHT22;11050;52.222;20.916;2024-03-23T08:23:07;9.80;99.90
21778;DHT22;11050;52.222;20.916;2024-03-23T08:25:34;9.80;99.90
21778;DHT22;11050;52.222;20.916;2024-03-23T08:28:01;9.80;99.90
21778;DHT22;11050;52.222;20.916;2024-03-23T08:30:27;9.80;99.90
21778;DHT22;11050;52.222;20.916;2024-03-23T08:32:53;9.90;99.90
21778;DHT22;11050;52.222;20.916;2024-03-23T08:35:19;9.90;99.90
21778;DHT22;11050;52.222;20.916;2024-03-23T08:37:45;10.00;99.90
21778;DHT22;11050;52.222;20.916;2024-03-23T08:40:12;10.10;99.90
21778;DHT22;11050;52.222;20.916;2024-03-23T08:42:38;10.20;99.90
21778;DHT22;11050;52.222;20.916;2024-03-23T08:45:04;10.40;99.90
21778;DHT22;11050;52.222;20.916;2024-03-23T08:47:34;10.60;99.90
21778;DHT22;11050;52.222;20.916;2024-03-23T08:50:01;10.80;99.90
21778;DHT22;11050;52.222;20.916;2024-03-23T08:52:27;10.90;99.90
21778;DHT22;11050;52.222;20.916;2024-03-23T08:54:55;11.10;99.90
21778;DHT22;11050;52.222;20.916;2024-03-23T08:57:22;11.30;99.90
21778;DHT22;11050;52.222;20.916;2024-03-23T08:59:48;11.40;99.90
21778;DHT22;11050;52.222;20.916;2024-03-23T09:02:15;11.50;99.90
21778;DHT22;11050;52.222;20.916;2024-03-23T09:04:40;11.60;99.90
21778;DHT22;11050;52.222;20.916;2024-03-23T09:07:06;11.50;99.90
21778;DHT22;11050;52.222;20.916;2024-03-23T09:09:32;11.60;99.90
21778;DHT22;11050;52.222;20.916;2024-03-23T09:11:57;11.70;99.90
21778;DHT22;11050;52.222;20.916;2024-03-23T09:14:23;11.80;99.90
21778;DHT22;11050;52.222;20.916;2024-03-23T09:16:52;11.90;99.90
21778;DHT22;11050;52.222;20.916;2024-03-23T09:19:17;12.00;99.90
21778;DHT22;11050;52.222;20.916;2024-03-23T09:21:43;12.10;99.90
21778;DHT22;11050;52.222;20.916;2024-03-23T09:24:09;12.40;99.90
21778;DHT22;11050;52.222;20.916;2024-03-23T09:26:35;12.50;99.90
21778;DHT22;11050;52.222;20.916;2024-03-23T09:29:00;12.60;99.90
21778;DHT22;11050;52.222;20.916;2024-03-23T09:31:26;12.70;99.90
21778;DHT22;11050;52.222;20.916;2024-03-23T09:33:52;12.70;99.90
21778;DHT22;11050;52.222;20.916;2024-03-23T09:36:18;12.70;99.90
21778;DHT22;11050;52.222;20.916;2024-03-23T09:38:44;12.70;99.90
21778;DHT22;11050;52.222;20.916;2024-03-23T09:41:09;12.70;99.90
21778;DHT22;11050;52.222;20.916;2024-03-23T09:43:35;12.70;99.90
21778;DHT22;11050;52.222;20.916;2024-03-23T09:46:02;12.80;99.90
21778;DHT22;11050;52.222;20.916;2024-03-23T09:48:28;12.80;99.90
21778;DHT22;11050;52.222;20.916;2024-03-23T09:50:54;12.80;99.90
21778;DHT22;11050;52.222;20.916;2024-03-23T09:53:20;12.90;99.90
21778;DHT22;11050;52.222;20.916;2024-03-23T09:55:47;13.00;99.90
21778;DHT22;11050;52.222;20.916;2024-03-23T09:58:16;13.10;99.90
21778;DHT22;11050;52.222;20.916;2024-03-23T10:00:43;13.20;99.90
21778;DHT22;11050;52.222;20.916;2024-03-23T10:03:09;13.30;99.90
21778;DHT22;11050;52.222;20.916;2024-03-23T10:05:36;13.30;99.90
21778;DHT22;11050;52.222;20.916;2024-03-23T10:10:45;13.40;99.90
21778;DHT22;11050;52.222;20.916;2024-03-23T10:13:27;13.50;99.90
21778;DHT22;11050;52.222;20.916;2024-03-23T10:15:58;13.70;99.90
21778;DHT22;11050;52.222;20.916;2024-03-23T10:18:25;13.80;99.90
21778;DHT22;11050;52.222;20.916;2024-03-23T10:21:06;14.00;99.90
21778;DHT22;11050;52.222;20.916;2024-03-23T10:23:40;14.00;99.90
21778;DHT22;11050;52.222;20.916;2024-03-23T10:26:19;14.10;99.90
21778;DHT22;11050;52.222;20.916;2024-03-23T10:28:57;14.10;99.90
21778;DHT22;11050;52.222;20.916;2024-03-23T10:31:33;14.20;99.90
21778;DHT22;11050;52.222;20.916;2024-03-23T10:34:03;14.30;99.90
21778;DHT22;11050;52.222;20.916;2024-03-23T10:36:30;14.40;99.90
21778;DHT22;11050;52.222;20.916;2024-03-23T10:38:56;14.60;99.90
21778;DHT22;11050;52.222;20.916;2024-03-23T10:41:27;14.70;99.90
21778;DHT22;11050;52.222;20.916;2024-03-23T10:43:55;14.80;99.90
21778;DHT22;11050;52.222;20.916;2024-03-23T10:46:23;14.90;99.90
21778;DHT22;11050;52.222;20.916;2024-03-23T10:48:49;15.10;99.90
21778;DHT22;11050;52.222;20.916;2024-03-23T10:51:15;15.30;99.90
21778;DHT22;11050;52.222;20.916;2024-03-23T10:53:41;15.40;99.90
21778;DHT22;11050;52.222;20.916;2024-03-23T10:56:08;15.60;99.90
21778;DHT22;11050;52.222;20.916;2024-03-23T10:58:54;15.70;99.90
21778;DHT22;11050;52.222;20.916;2024-03-23T11:01:20;15.90;99.90
21778;DHT22;11050;52.222;20.916;2024-03-23T11:03:46;16.00;99.90
21778;DHT22;11050;52.222;20.916;2024-03-23T11:06:38;16.10;99.90
21778;DHT22;11050;52.222;20.916;2024-03-23T11:09:39;16.30;99.90
21778;DHT22;11050;52.222;20.916;2024-03-23T11:12:26;16.50;99.90
21778;DHT22;11050;52.222;20.916;2024-03-23T11:15:04;16.80;99.90
21778;DHT22;11050;52.222;20.916;2024-03-23T11:17:31;17.00;99.90
21778;DHT22;11050;52.222;20.916;2024-03-23T11:22:46;17.40;99.90
21778;DHT22;11050;52.222;20.916;2024-03-23T11:25:17;17.50;99.90
21778;DHT22;11050;52.222;20.916;2024-03-23T11:27:44;17.70;99.90
21778;DHT22;11050;52.222;20.916;2024-03-23T11:32:51;17.80;97.60
21778;DHT22;11050;52.222;20.916;2024-03-23T11:35:32;17.90;97.00
21778;DHT22;11050;52.222;20.916;2024-03-23T11:38:14;18.00;95.90
21778;DHT22;11050;52.222;20.916;2024-03-23T11:40:50;18.20;94.10
21778;DHT22;11050;52.222;20.916;2024-03-23T11:43:17;18.40;93.40
21778;DHT22;11050;52.222;20.916;2024-03-23T11:45:46;18.70;92.90
21778;DHT22;11050;52.222;20.916;2024-03-23T11:48:15;18.90;86.60
21778;DHT22;11050;52.222;20.916;2024-03-23T11:50:49;19.00;79.80
21778;DHT22;11050;52.222;20.916;2024-03-23T11:53:25;18.90;82.00
21778;DHT22;11050;52.222;20.916;2024-03-23T11:55:58;18.70;82.30
21778;DHT22;11050;52.222;20.916;2024-03-23T11:58:27;18.50;83.20
21778;DHT22;11050;52.222;20.916;2024-03-23T12:00:56;18.50;83.20
21778;DHT22;11050;52.222;20.916;2024-03-23T12:03:23;18.40;83.50
21778;DHT22;11050;52.222;20.916;2024-03-23T12:05:55;18.20;81.60
21778;DHT22;11050;52.222;20.916;2024-03-23T12:13:39;18.20;81.00
21778;DHT22;11050;52.222;20.916;2024-03-23T12:16:16;18.30;80.90
21778;DHT22;11050;52.222;20.916;2024-03-23T12:18:45;18.10;80.70
21778;DHT22;11050;52.222;20.916;2024-03-23T12:21:12;17.90;81.70
21778;DHT22;11050;52.222;20.916;2024-03-23T12:23:41;17.80;82.30
21778;DHT22;11050;52.222;20.916;2024-03-23T12:26:14;17.60;83.40
21778;DHT22;11050;52.222;20.916;2024-03-23T12:28:41;17.40;83.20
21778;DHT22;11050;52.222;20.916;2024-03-23T12:31:06;17.30;83.30
21778;DHT22;11050;52.222;20.916;2024-03-23T12:33:32;17.10;82.70
21778;DHT22;11050;52.222;20.916;2024-03-23T12:35:58;16.90;83.50
21778;DHT22;11050;52.222;20.916;2024-03-23T12:38:24;16.80;84.30
21778;DHT22;11050;52.222;20.916;2024-03-23T12:40:50;16.60;85.60
21778;DHT22;11050;52.222;20.916;2024-03-23T12:43:17;16.50;87.60
21778;DHT22;11050;52.222;20.916;2024-03-23T12:45:49;16.30;88.10
21778;DHT22;11050;52.222;20.916;2024-03-23T12:48:16;16.20;89.60
21778;DHT22;11050;52.222;20.916;2024-03-23T12:50:42;16.10;90.20
21778;DHT22;11050;52.222;20.916;2024-03-23T12:53:08;16.00;90.50
21778;DHT22;11050;52.222;20.916;2024-03-23T12:55:37;15.90;91.30
21778;DHT22;11050;52.222;20.916;2024-03-23T12:58:03;15.80;92.10
21778;DHT22;11050;52.222;20.916;2024-03-23T13:00:30;15.80;92.70
21778;DHT22;11050;52.222;20.916;2024-03-23T13:02:56;15.80;93.10
21778;DHT22;11050;52.222;20.916;2024-03-23T13:05:21;15.80;93.10
21778;DHT22;11050;52.222;20.916;2024-03-23T13:07:48;15.90;92.80
21778;DHT22;11050;52.222;20.916;2024-03-23T13:10:14;15.90;93.00
21778;DHT22;11050;52.222;20.916;2024-03-23T13:12:41;16.00;93.20
21778;DHT22;11050;52.222;20.916;2024-03-23T13:15:08;16.00;92.60
21778;DHT22;11050;52.222;20.916;2024-03-23T13:17:34;16.00;92.10
21778;DHT22;11050;52.222;20.916;2024-03-23T13:20:00;16.00;92.20
21778;DHT22;11050;52.222;20.916;2024-03-23T13:22:25;16.00;92.50
21778;DHT22;11050;52.222;20.916;2024-03-23T13:24:51;16.00;92.40
21778;DHT22;11050;52.222;20.916;2024-03-23T13:27:17;15.90;92.60
21778;DHT22;11050;52.222;20.916;2024-03-23T13:29:44;15.90;92.60
21778;DHT22;11050;52.222;20.916;2024-03-23T13:32:11;16.00;93.10
21778;DHT22;11050;52.222;20.916;2024-03-23T13:34:37;16.00;92.70
21778;DHT22;11050;52.222;20.916;2024-03-23T13:37:03;16.00;92.90
21778;DHT22;11050;52.222;20.916;2024-03-23T13:39:30;16.00;91.90
21778;DHT22;11050;52.222;20.916;2024-03-23T13:41:56;16.00;91.60
21778;DHT22;11050;52.222;20.916;2024-03-23T13:44:22;16.00;91.50
21778;DHT22;11050;52.222;20.916;2024-03-23T13:46:48;16.00;90.40
21778;DHT22;11050;52.222;20.916;2024-03-23T13:49:28;16.00;90.70
21778;DHT22;11050;52.222;20.916;2024-03-23T13:51:55;15.90;91.00
21778;DHT22;11050;52.222;20.916;2024-03-23T13:54:22;15.90;91.80
21778;DHT22;11050;52.222;20.916;2024-03-23T13:56:56;15.80;92.00
21778;DHT22;11050;52.222;20.916;2024-03-23T13:59:22;15.70;91.70
21778;DHT22;11050;52.222;20.916;2024-03-23T14:01:49;15.70;92.40
21778;DHT22;11050;52.222;20.916;2024-03-23T14:04:19;15.60;92.50
21778;DHT22;11050;52.222;20.916;2024-03-23T14:06:46;15.60;92.20
21778;DHT22;11050;52.222;20.916;2024-03-23T14:09:12;15.50;92.60
21778;DHT22;11050;52.222;20.916;2024-03-23T14:11:39;15.50;93.60
21778;DHT22;11050;52.222;20.916;2024-03-23T14:14:07;15.40;93.50
21778;DHT22;11050;52.222;20.916;2024-03-23T14:16:33;15.40;93.30
21778;DHT22;11050;52.222;20.916;2024-03-23T14:18:59;15.40;93.30
21778;DHT22;11050;52.222;20.916;2024-03-23T14:21:25;15.40;93.50
21778;DHT22;11050;52.222;20.916;2024-03-23T14:23:51;15.30;94.10
21778;DHT22;11050;52.222;20.916;2024-03-23T14:26:17;15.30;94.50
21778;DHT22;11050;52.222;20.916;2024-03-23T14:28:43;15.30;94.90
21778;DHT22;11050;52.222;20.916;2024-03-23T14:31:09;15.30;95.50
21778;DHT22;11050;52.222;20.916;2024-03-23T14:33:38;15.30;96.00
21778;DHT22;11050;52.222;20.916;2024-03-23T14:36:06;15.30;96.10
21778;DHT22;11050;52.222;20.916;2024-03-23T14:38:32;15.30;95.90
21778;DHT22;11050;52.222;20.916;2024-03-23T14:41:01;15.30;95.90
21778;DHT22;11050;52.222;20.916;2024-03-23T14:43:29;15.30;96.10
21778;DHT22;11050;52.222;20.916;2024-03-23T14:46:10;15.30;96.00
21778;DHT22;11050;52.222;20.916;2024-03-23T14:48:41;15.20;96.10
21778;DHT22;11050;52.222;20.916;2024-03-23T14:51:08;15.30;97.60
21778;DHT22;11050;52.222;20.916;2024-03-23T14:53:40;15.20;98.80
21778;DHT22;11050;52.222;20.916;2024-03-23T14:56:10;15.10;99.60
21778;DHT22;11050;52.222;20.916;2024-03-23T14:58:38;15.10;99.90
21778;DHT22;11050;52.222;20.916;2024-03-23T15:01:06;15.00;99.90
21778;DHT22;11050;52.222;20.916;2024-03-23T15:03:35;14.90;99.90
21778;DHT22;11050;52.222;20.916;2024-03-23T15:06:08;14.80;99.90
21778;DHT22;11050;52.222;20.916;2024-03-23T15:08:34;14.60;99.90
21778;DHT22;11050;52.222;20.916;2024-03-23T15:11:02;14.40;99.90
21778;DHT22;11050;52.222;20.916;2024-03-23T15:13:39;14.10;99.90
21778;DHT22;11050;52.222;20.916;2024-03-23T15:16:05;13.90;99.90
21778;DHT22;11050;52.222;20.916;2024-03-23T15:18:34;13.60;99.90
21778;DHT22;11050;52.222;20.916;2024-03-23T15:21:02;13.30;99.90
21778;DHT22;11050;52.222;20.916;2024-03-23T15:23:31;13.00;99.90
21778;DHT22;11050;52.222;20.916;2024-03-23T15:25:58;12.70;99.90
21778;DHT22;11050;52.222;20.916;2024-03-23T15:28:26;12.40;99.90
21778;DHT22;11050;52.222;20.916;2024-03-23T15:31:06;12.20;99.90
21778;DHT22;11050;52.222;20.916;2024-03-23T15:33:33;12.00;99.90
21778;DHT22;11050;52.222;20.916;2024-03-23T15:36:02;11.90;99.90
21778;DHT22;11050;52.222;20.916;2024-03-23T15:38:30;11.70;99.90
21778;DHT22;11050;52.222;20.916;2024-03-23T15:40:57;11.60;99.90
21778;DHT22;11050;52.222;20.916;2024-03-23T15:43:24;11.50;99.90
21778;DHT22;11050;52.222;20.916;2024-03-23T15:46:03;11.40;99.90
21778;DHT22;11050;52.222;20.916;2024-03-23T15:48:31;11.30;99.90
21778;DHT22;11050;52.222;20.916;2024-03-23T15:50:59;11.20;99.90
21778;DHT22;11050;52.222;20.916;2024-03-23T15:53:27;11.20;99.90
21778;DHT22;11050;52.222;20.916;2024-03-23T15:56:01;11.10;99.90
21778;DHT22;11050;52.222;20.916;2024-03-23T15:58:29;11.00;99.90
21778;DHT22;11050;52.222;20.916;2024-03-23T16:01:09;11.00;99.90
21778;DHT22;11050;52.222;20.916;2024-03-23T16:03:36;10.90;99.90
21778;DHT22;11050;52.222;20.916;2024-03-23T16:06:04;10.90;99.90
21778;DHT22;11050;52.222;20.916;2024-03-23T16:08:32;10.90;99.90
21778;DHT22;11050;52.222;20.916;2024-03-23T16:11:03;10.80;99.90
21778;DHT22;11050;52.222;20.916;2024-03-23T16:13:31;10.90;99.90
21778;DHT22;11050;52.222;20.916;2024-03-23T16:16:04;10.80;99.90
21778;DHT22;11050;52.222;20.916;2024-03-23T16:18:34;10.80;99.90
21778;DHT22;11050;52.222;20.916;2024-03-23T16:21:01;10.70;99.90
21778;DHT22;11050;52.222;20.916;2024-03-23T16:23:29;10.70;99.90
21778;DHT22;11050;52.222;20.916;2024-03-23T16:25:56;10.70;99.90
21778;DHT22;11050;52.222;20.916;2024-03-23T16:28:29;10.70;99.90
21778;DHT22;11050;52.222;20.916;2024-03-23T16:30:57;10.70;99.90
21778;DHT22;11050;52.222;20.916;2024-03-23T16:33:25;10.70;99.90